createdAt,value
2017-08-29T00:00:34.729Z,69.80
2017-08-29T00:03:03.203Z,69.20
2017-08-29T00:05:31.614Z,69.40
2017-08-29T00:08:00.165Z,69.90
2017-08-29T00:10:28.545Z,70.70
2017-08-29T00:12:57.050Z,71.10
2017-08-29T00:15:25.405Z,71.10
2017-08-29T00:17:53.970Z,71.40
2017-08-29T00:20:22.310Z,71.50
2017-08-29T00:22:50.722Z,71.60
2017-08-29T00:25:19.069Z,71.30
2017-08-29T00:27:47.426Z,70.70
2017-08-29T00:30:15.911Z,70.90
2017-08-29T00:32:44.481Z,70.40
2017-08-29T00:35:12.822Z,70.50
2017-08-29T00:37:40.977Z,69.80
2017-08-29T00:40:09.352Z,69.90
2017-08-29T00:42:38.037Z,69.60
2017-08-29T00:45:06.409Z,69.90
2017-08-29T00:47:34.752Z,69.80
2017-08-29T00:50:03.878Z,69.40
2017-08-29T00:52:32.067Z,69.30
2017-08-29T00:55:00.440Z,69.90
2017-08-29T00:57:28.905Z,70.10
2017-08-29T00:59:57.287Z,70.00
2017-08-29T01:02:25.757Z,70.20
2017-08-29T01:04:54.111Z,70.00
2017-08-29T01:07:22.466Z,69.70
2017-08-29T01:09:51.092Z,70.20
2017-08-29T01:12:19.097Z,69.90
2017-08-29T01:14:47.481Z,69.20
2017-08-29T01:17:15.843Z,69.20
2017-08-29T01:19:44.188Z,69.40
2017-08-29T01:22:12.205Z,69.00
2017-08-29T01:24:39.910Z,69.00
2017-08-29T01:27:07.876Z,69.10
2017-08-29T01:29:35.741Z,69.10
2017-08-29T01:32:03.550Z,68.80
2017-08-29T01:34:31.571Z,68.60
2017-08-29T01:36:59.578Z,68.30
2017-08-29T01:39:27.590Z,68.20
2017-08-29T01:41:56.963Z,68.20
2017-08-29T01:44:24.972Z,68.50
2017-08-29T01:46:52.715Z,68.80
2017-08-29T01:49:20.495Z,68.70
2017-08-29T01:51:48.537Z,68.90
2017-08-29T01:54:16.555Z,69.00
2017-08-29T01:56:44.238Z,69.10
2017-08-29T01:59:11.902Z,69.40
2017-08-29T02:01:39.609Z,69.30
2017-08-29T02:04:07.274Z,69.90
2017-08-29T02:06:35.131Z,69.60
2017-08-29T02:09:02.958Z,69.60
2017-08-29T02:11:30.987Z,69.40
2017-08-29T02:13:59.354Z,69.60
2017-08-29T02:16:27.710Z,70.00
2017-08-29T02:18:56.076Z,69.80
2017-08-29T02:21:24.463Z,70.10
2017-08-29T02:23:52.840Z,69.90
2017-08-29T02:26:21.215Z,69.90
2017-08-29T02:28:49.568Z,70.00
2017-08-29T02:31:18.695Z,71.00
2017-08-29T02:33:47.046Z,70.90
2017-08-29T02:36:15.402Z,70.40
2017-08-29T02:38:43.779Z,70.40
2017-08-29T02:41:12.903Z,70.00
2017-08-29T02:43:41.264Z,69.90
2017-08-29T02:46:09.634Z,70.30
2017-08-29T02:48:38.135Z,70.00
2017-08-29T02:51:06.736Z,70.50
2017-08-29T02:53:35.097Z,70.30
2017-08-29T02:56:03.466Z,70.10
2017-08-29T02:58:31.846Z,69.90
2017-08-29T03:01:00.254Z,70.00
2017-08-29T03:03:28.622Z,70.30
2017-08-29T03:05:56.974Z,70.00
2017-08-29T03:08:25.727Z,70.20
2017-08-29T03:10:54.846Z,70.20
2017-08-29T03:13:23.202Z,70.20
2017-08-29T03:15:51.557Z,70.30
2017-08-29T03:18:20.794Z,70.70
2017-08-29T03:20:49.170Z,70.30
2017-08-29T03:23:17.506Z,70.50
2017-08-29T03:25:45.877Z,70.60
2017-08-29T03:28:14.234Z,71.00
2017-08-29T03:30:42.673Z,70.90
2017-08-29T03:33:11.047Z,70.90
2017-08-29T03:35:39.422Z,70.90
2017-08-29T03:38:07.777Z,70.90
2017-08-29T03:40:36.482Z,71.10
2017-08-29T03:43:04.869Z,71.30
2017-08-29T03:45:33.609Z,70.70
2017-08-29T03:48:01.970Z,70.70
2017-08-29T03:50:30.397Z,71.60
2017-08-29T03:52:58.774Z,71.20
2017-08-29T03:55:27.125Z,71.00
2017-08-29T03:57:55.521Z,71.60
2017-08-29T04:00:23.884Z,71.40
2017-08-29T04:02:52.231Z,71.60
2017-08-29T04:05:21.366Z,72.50
2017-08-29T04:07:49.721Z,71.90
2017-08-29T04:10:18.116Z,71.90
2017-08-29T04:12:46.699Z,72.10
2017-08-29T04:15:15.074Z,72.20
2017-08-29T04:17:43.423Z,71.90
2017-08-29T04:20:11.794Z,72.20
2017-08-29T04:22:40.187Z,72.40
2017-08-29T04:25:08.552Z,72.40
2017-08-29T04:27:36.906Z,71.90
2017-08-29T04:30:05.078Z,72.30
2017-08-29T04:32:34.317Z,72.60
2017-08-29T04:35:02.765Z,72.00
2017-08-29T04:37:31.899Z,71.90
2017-08-29T04:40:00.270Z,71.90
2017-08-29T04:42:28.743Z,72.00
2017-08-29T04:44:57.326Z,72.30
2017-08-29T04:47:25.670Z,72.30
2017-08-29T04:49:54.080Z,72.90
2017-08-29T04:52:22.429Z,72.30
2017-08-29T04:54:50.798Z,72.00
2017-08-29T04:57:19.161Z,72.10
2017-08-29T04:59:47.181Z,71.80
2017-08-29T05:02:15.749Z,71.80
2017-08-29T05:04:44.740Z,71.90
2017-08-29T05:07:13.117Z,72.00
2017-08-29T05:09:41.183Z,71.70
2017-08-29T05:12:09.559Z,71.80
2017-08-29T05:14:38.035Z,71.60
2017-08-29T05:17:06.399Z,71.80
2017-08-29T05:19:34.764Z,72.00
2017-08-29T05:22:03.879Z,72.00
2017-08-29T05:24:32.256Z,72.00
2017-08-29T05:27:00.633Z,71.90
2017-08-29T05:29:28.986Z,72.00
2017-08-29T05:31:57.341Z,72.20
2017-08-29T05:34:26.462Z,72.10
2017-08-29T05:36:54.955Z,72.10
2017-08-29T05:39:24.258Z,72.90
2017-08-29T05:41:52.629Z,72.90
2017-08-29T05:44:20.869Z,72.90
2017-08-29T05:46:49.277Z,73.00
2017-08-29T05:49:17.756Z,73.50
2017-08-29T05:51:46.181Z,73.30
2017-08-29T05:54:14.570Z,72.90
2017-08-29T05:56:42.940Z,72.70
2017-08-29T05:59:11.306Z,72.40
2017-08-29T06:01:39.684Z,72.70
2017-08-29T06:04:08.317Z,72.50
2017-08-29T06:06:36.693Z,72.60
2017-08-29T06:09:04.365Z,72.10
2017-08-29T06:11:32.529Z,72.00
2017-08-29T06:14:01.213Z,71.90
2017-08-29T06:16:29.598Z,71.60
2017-08-29T06:18:57.775Z,71.50
2017-08-29T06:21:26.403Z,71.50
2017-08-29T06:23:54.761Z,71.50
2017-08-29T06:26:23.119Z,71.60
2017-08-29T06:28:51.493Z,71.60
2017-08-29T06:31:19.838Z,71.50
2017-08-29T06:33:48.271Z,71.40
2017-08-29T06:36:16.766Z,71.60
2017-08-29T06:38:45.118Z,71.40
2017-08-29T06:41:13.492Z,71.10
2017-08-29T06:43:41.850Z,71.50
2017-08-29T06:46:10.208Z,72.20
2017-08-29T06:48:38.833Z,72.00
2017-08-29T06:51:07.969Z,71.80
2017-08-29T06:53:36.321Z,71.50
2017-08-29T06:56:04.826Z,71.50
2017-08-29T06:58:33.184Z,71.30
2017-08-29T07:01:01.636Z,71.20
2017-08-29T07:03:30.872Z,71.10
2017-08-29T07:05:59.505Z,71.80
2017-08-29T07:08:27.850Z,72.60
2017-08-29T07:10:56.221Z,72.10
2017-08-29T07:13:24.609Z,71.30
2017-08-29T07:15:52.776Z,70.70
2017-08-29T07:18:21.134Z,70.30
2017-08-29T07:20:49.134Z,70.40
2017-08-29T07:23:17.515Z,70.40
2017-08-29T07:25:45.878Z,70.20
2017-08-29T07:28:14.232Z,70.10
2017-08-29T07:30:42.601Z,70.10
2017-08-29T07:33:10.962Z,70.30
2017-08-29T07:35:39.320Z,70.30
2017-08-29T07:38:07.673Z,70.20
2017-08-29T07:40:36.028Z,70.30
2017-08-29T07:43:04.398Z,70.20
2017-08-29T07:45:32.798Z,70.30
2017-08-29T07:48:03.506Z,70.20
2017-08-29T07:50:31.670Z,70.30
2017-08-29T07:53:00.048Z,70.30
2017-08-29T07:55:28.407Z,70.40
2017-08-29T07:57:56.754Z,70.30
2017-08-29T08:00:25.114Z,70.20
2017-08-29T08:02:53.478Z,70.20
2017-08-29T08:05:21.853Z,70.10
2017-08-29T08:07:50.225Z,69.80
2017-08-29T08:10:18.594Z,69.70
2017-08-29T08:12:46.780Z,69.50
2017-08-29T08:15:14.942Z,69.20
2017-08-29T08:17:43.312Z,68.90
2017-08-29T08:20:11.685Z,68.60
2017-08-29T08:22:40.034Z,68.70
2017-08-29T08:25:08.424Z,68.70
2017-08-29T08:27:36.778Z,68.60
2017-08-29T08:30:05.151Z,68.50
2017-08-29T08:32:33.508Z,68.50
2017-08-29T08:35:01.876Z,68.30
2017-08-29T08:37:30.239Z,68.10
2017-08-29T08:39:58.591Z,67.70
2017-08-29T08:42:26.953Z,67.70
2017-08-29T08:44:55.332Z,67.60
2017-08-29T08:47:23.695Z,67.50
2017-08-29T08:49:52.054Z,67.40
2017-08-29T08:52:20.415Z,67.20
2017-08-29T08:54:48.781Z,67.20
2017-08-29T08:57:16.987Z,66.80
2017-08-29T08:59:45.336Z,66.40
2017-08-29T09:02:13.694Z,66.20
2017-08-29T09:04:41.864Z,65.60
2017-08-29T09:07:10.229Z,65.60
2017-08-29T09:09:38.590Z,65.40
2017-08-29T09:12:06.969Z,64.90
2017-08-29T09:14:35.343Z,64.80
2017-08-29T09:17:03.701Z,64.60
2017-08-29T09:19:32.331Z,64.30
2017-08-29T09:22:00.689Z,64.20
2017-08-29T09:24:29.066Z,64.00
2017-08-29T09:26:57.446Z,63.70
2017-08-29T09:29:25.838Z,63.50
2017-08-29T09:31:54.185Z,63.10
2017-08-29T09:34:22.541Z,62.80
2017-08-29T09:36:50.914Z,62.50
2017-08-29T09:39:19.292Z,62.30
2017-08-29T09:41:47.666Z,62.10
2017-08-29T09:44:16.046Z,62.10
2017-08-29T09:46:44.418Z,62.10
2017-08-29T09:49:12.970Z,62.00
2017-08-29T09:51:41.326Z,61.80
2017-08-29T09:54:09.683Z,61.50
2017-08-29T09:56:37.850Z,61.30
2017-08-29T09:59:06.027Z,61.10
2017-08-29T10:01:34.390Z,60.90
2017-08-29T10:04:02.759Z,60.70
2017-08-29T10:06:31.119Z,60.70
2017-08-29T10:08:59.494Z,60.60
2017-08-29T10:11:27.894Z,60.60
2017-08-29T10:13:56.250Z,60.40
2017-08-29T10:16:24.620Z,60.10
2017-08-29T10:18:52.979Z,59.90
2017-08-29T10:21:21.343Z,59.50
2017-08-29T10:23:49.713Z,58.60
2017-08-29T10:26:18.077Z,58.70
2017-08-29T10:28:46.439Z,58.70
2017-08-29T10:31:15.070Z,58.60
2017-08-29T10:33:43.441Z,58.40
2017-08-29T10:36:11.830Z,58.10
2017-08-29T10:38:40.217Z,58.00
2017-08-29T10:41:08.583Z,58.00
2017-08-29T10:43:36.964Z,57.90
2017-08-29T10:46:05.313Z,58.00
2017-08-29T10:48:33.683Z,57.70
2017-08-29T10:51:02.056Z,57.40
2017-08-29T10:53:30.433Z,57.00
2017-08-29T10:55:58.813Z,56.80
2017-08-29T10:58:27.391Z,56.40
2017-08-29T11:00:55.755Z,55.80
2017-08-29T11:03:24.106Z,55.50
2017-08-29T11:05:52.475Z,55.20
2017-08-29T11:08:20.836Z,55.00
2017-08-29T11:10:49.199Z,54.70
2017-08-29T11:13:17.572Z,54.40
2017-08-29T11:15:45.944Z,54.30
2017-08-29T11:18:14.563Z,54.40
2017-08-29T11:20:42.929Z,54.30
2017-08-29T11:23:11.297Z,54.00
2017-08-29T11:25:39.471Z,53.90
2017-08-29T11:28:07.663Z,53.80
2017-08-29T11:30:36.609Z,53.30
2017-08-29T11:33:04.771Z,53.20
2017-08-29T11:35:32.958Z,52.80
2017-08-29T11:38:01.126Z,52.50
2017-08-29T11:40:29.311Z,52.60
2017-08-29T11:42:57.495Z,52.40
2017-08-29T11:45:25.669Z,52.00
2017-08-29T11:47:53.868Z,51.50
2017-08-29T11:50:22.034Z,51.60
2017-08-29T11:52:50.216Z,51.60
2017-08-29T11:55:18.379Z,51.50
2017-08-29T11:57:47.363Z,51.30
2017-08-29T12:00:15.553Z,51.30
2017-08-29T12:02:43.743Z,51.00
2017-08-29T12:05:12.099Z,51.00
2017-08-29T12:07:40.286Z,50.80
2017-08-29T12:10:08.486Z,50.70
2017-08-29T12:12:36.691Z,50.10
2017-08-29T12:15:05.043Z,50.00
2017-08-29T12:17:33.421Z,49.80
2017-08-29T12:20:01.787Z,48.80
2017-08-29T12:22:30.144Z,47.30
2017-08-29T12:24:58.511Z,46.90
2017-08-29T12:27:26.876Z,45.80
2017-08-29T12:29:55.239Z,45.10
2017-08-29T12:32:23.595Z,45.30
2017-08-29T12:34:51.945Z,45.40
2017-08-29T12:37:20.323Z,45.50
2017-08-29T12:39:48.685Z,43.90
2017-08-29T12:42:17.043Z,44.10
2017-08-29T12:44:45.942Z,44.60
2017-08-29T12:47:14.133Z,44.60
2017-08-29T12:49:42.491Z,44.50
2017-08-29T12:52:10.854Z,44.20
2017-08-29T12:54:39.243Z,44.00
2017-08-29T12:57:07.623Z,44.00
2017-08-29T12:59:35.990Z,43.50
2017-08-29T13:02:04.336Z,43.30
2017-08-29T13:04:32.701Z,43.20
2017-08-29T13:07:01.056Z,43.00
2017-08-29T13:09:29.414Z,42.90
2017-08-29T13:11:57.779Z,42.70
2017-08-29T13:14:26.140Z,42.80
2017-08-29T13:16:54.498Z,42.70
2017-08-29T13:19:22.854Z,42.60
2017-08-29T13:21:51.011Z,42.50
2017-08-29T13:24:19.185Z,42.60
2017-08-29T13:26:47.375Z,42.20
2017-08-29T13:29:15.735Z,42.40
2017-08-29T13:31:44.645Z,42.50
2017-08-29T13:34:13.726Z,42.10
2017-08-29T13:36:42.066Z,42.30
2017-08-29T13:39:10.418Z,41.80
2017-08-29T13:41:39.352Z,41.90
2017-08-29T13:44:08.269Z,41.60
2017-08-29T13:46:38.295Z,41.50
2017-08-29T13:49:06.643Z,41.50
2017-08-29T13:51:35.562Z,41.30
2017-08-29T13:54:03.957Z,41.40
2017-08-29T13:56:32.893Z,41.40
2017-08-29T13:59:01.242Z,41.60
2017-08-29T14:01:29.593Z,41.40
2017-08-29T14:03:58.740Z,41.30
2017-08-29T14:06:27.676Z,41.10
2017-08-29T14:08:56.598Z,40.80
2017-08-29T14:11:25.514Z,41.10
2017-08-29T14:13:53.868Z,41.90
2017-08-29T14:16:22.239Z,42.20
2017-08-29T14:18:50.593Z,42.30
2017-08-29T14:21:19.510Z,42.20
2017-08-29T14:23:48.435Z,42.60
2017-08-29T14:26:17.367Z,42.80
2017-08-29T14:28:46.306Z,43.00
2017-08-29T14:31:15.218Z,42.70
2017-08-29T14:33:44.130Z,42.10
2017-08-29T14:36:13.037Z,42.60
2017-08-29T14:38:41.954Z,42.60
2017-08-29T14:41:10.865Z,42.30
2017-08-29T14:43:39.802Z,42.50
2017-08-29T14:46:08.034Z,42.60
2017-08-29T14:48:48.134Z,43.50
2017-08-29T14:51:17.039Z,43.50
2017-08-29T14:53:45.943Z,43.70
2017-08-29T14:56:15.130Z,43.70
2017-08-29T14:58:43.479Z,43.90
2017-08-29T15:01:11.841Z,43.90
2017-08-29T15:03:40.755Z,43.90
2017-08-29T15:06:09.662Z,44.50
2017-08-29T15:08:38.809Z,45.00
2017-08-29T15:11:07.730Z,45.00
2017-08-29T15:13:36.978Z,44.60
2017-08-29T15:16:05.325Z,44.80
2017-08-29T15:18:34.291Z,44.70
2017-08-29T15:21:03.216Z,44.70
2017-08-29T15:23:31.566Z,44.40
2017-08-29T15:25:59.933Z,44.40
2017-08-29T15:28:28.288Z,44.30
2017-08-29T15:30:57.219Z,44.10
2017-08-29T15:33:25.561Z,43.90
2017-08-29T15:35:53.959Z,43.30
2017-08-29T15:38:22.616Z,43.20
2017-08-29T15:40:51.517Z,43.20
2017-08-29T15:43:19.710Z,43.20
2017-08-29T16:29:29.307Z,43.40
2017-08-29T16:31:58.215Z,42.70
2017-08-29T16:34:27.128Z,42.70
2017-08-29T16:36:56.296Z,42.90
2017-08-29T16:39:25.442Z,43.10
2017-08-29T16:41:54.359Z,43.00
2017-08-29T16:44:23.281Z,43.10
2017-08-29T16:46:51.650Z,43.20
2017-08-29T16:49:20.023Z,43.20
2017-08-29T16:51:48.422Z,43.30
2017-08-29T16:54:16.757Z,43.40
2017-08-29T16:56:45.696Z,43.40
2017-08-29T16:59:14.778Z,43.50
2017-08-29T17:01:43.142Z,43.60
2017-08-29T17:04:11.494Z,43.70
2017-08-29T17:06:39.679Z,43.80
2017-08-29T17:09:08.027Z,43.90
2017-08-29T17:11:36.401Z,43.80
2017-08-29T17:14:05.308Z,44.20
2017-08-29T17:16:34.439Z,43.70
2017-08-29T17:19:02.793Z,43.70
2017-08-29T17:21:31.184Z,43.80
2017-08-29T17:23:59.764Z,44.00
2017-08-29T17:26:28.122Z,44.30
2017-08-29T17:28:56.483Z,44.70
2017-08-29T17:31:24.888Z,44.80
2017-08-29T17:33:53.234Z,45.10
2017-08-29T17:36:21.394Z,45.40
2017-08-29T17:38:49.772Z,45.60
2017-08-29T17:41:18.133Z,45.80
2017-08-29T17:43:46.499Z,46.00
2017-08-29T17:46:14.862Z,46.30
2017-08-29T17:48:43.226Z,46.40
2017-08-29T17:51:11.580Z,46.70
2017-08-29T17:53:39.942Z,46.90
2017-08-29T17:56:08.290Z,47.00
2017-08-29T17:58:36.655Z,47.20
2017-08-29T18:01:05.033Z,47.30
2017-08-29T18:03:33.398Z,47.60
2017-08-29T18:06:01.748Z,48.00
2017-08-29T18:08:30.116Z,48.30
2017-08-29T18:10:58.476Z,48.60
2017-08-29T18:13:26.826Z,48.80
2017-08-29T18:15:55.205Z,49.30
2017-08-29T18:18:23.574Z,49.60
2017-08-29T18:20:51.930Z,49.80
2017-08-29T18:23:20.482Z,50.10
2017-08-29T18:25:48.831Z,50.40
2017-08-29T18:28:17.188Z,50.60
2017-08-29T18:30:45.560Z,50.80
2017-08-29T18:33:13.906Z,51.00
2017-08-29T18:35:42.271Z,51.30
2017-08-29T18:38:10.628Z,51.40
2017-08-29T18:40:39.098Z,51.60
2017-08-29T18:43:07.554Z,53.00
2017-08-29T18:45:35.932Z,53.70
2017-08-29T18:48:04.286Z,53.90
2017-08-29T18:50:32.682Z,54.20
2017-08-29T18:53:01.077Z,54.30
2017-08-29T18:55:29.431Z,54.60
2017-08-29T18:57:57.782Z,54.70
2017-08-29T19:00:26.138Z,55.40
2017-08-29T19:02:54.528Z,55.20
2017-08-29T19:05:22.892Z,55.50
2017-08-29T19:07:51.281Z,55.70
2017-08-29T19:10:19.664Z,55.80
2017-08-29T19:12:48.248Z,55.90
2017-08-29T19:15:16.618Z,56.00
2017-08-29T19:17:44.988Z,55.90
2017-08-29T19:20:13.344Z,56.10
2017-08-29T19:22:41.734Z,56.20
2017-08-29T19:25:10.102Z,56.20
2017-08-29T19:27:38.494Z,56.30
2017-08-29T19:30:06.919Z,56.30
2017-08-29T19:32:36.223Z,55.90
2017-08-29T19:35:04.592Z,55.90
2017-08-29T19:37:33.275Z,56.10
2017-08-29T19:40:01.741Z,55.90
2017-08-29T19:42:30.093Z,55.70
2017-08-29T19:44:58.495Z,55.80
2017-08-29T19:47:26.899Z,55.90
2017-08-29T19:49:55.273Z,56.10
2017-08-29T19:52:23.660Z,55.90
2017-08-29T19:54:52.038Z,56.10
2017-08-29T19:57:20.607Z,56.10
2017-08-29T19:59:49.206Z,56.20
2017-08-29T20:02:17.559Z,56.30
2017-08-29T20:04:45.939Z,56.00
2017-08-29T20:07:14.308Z,56.10
